LIPQLIRQ

Guest
Details From LIPQ - Ronchi Dei Legionari
To LIRQ - Firenze
Flight Number -
Tags generated
Created
Modified
Stats Distance 156 nm / 288 km
Max Altitude 16,600 ft / 5,060 m
Waypoints 3
Social Downloads 0
Likes 0
Share VATSIM

Download

Looking for another format? Having issues loading an existing format? Contact us
Advertisement - Login to hide

Notes

Basic altitude profile: - Ascent Rate: 2500ft/min - Ascent Speed: 250kts - Cruise Altitude: 27000ft - Cruise Speed: 330kts - Descent Rate: 1500ft/min - Descent Speed: 240kts Options: - Use NATs: yes - Use PACOTS: yes - Use low airways: no - Use high airways: yes

Route

LIPQ LOBSI LIRQ

ID Type Via Altitude Latitude Longitude Leg Dist Tot Dist Heading (true) Name
O LIPQ APT - 0 ft / 0 m 45.82786˚ 13.46666˚ - 0 nm - Ronchi Dei Legionari
LOBSI FIX - 16,600 ft / 5,060 m 44.90500˚ 12.17250˚ 77 nm 77 nm 225° / 224° -
O LIRQ APT - 0 ft / 0 m 43.80998˚ 11.20512˚ 77 nm 155 nm 213° / 212° Firenze

Altitude Profile

Advertisement - Login to hide

LIPQ

Details ICAO LIPQ (TRS)
Name Ronchi Dei Legionari
Region Italy
Timezone Europe/Rome (UTC+1.0)
Stats Elevation 37 ft / 11 m (AMSL)
Location 45.827857° 13.466663°
Runways 1
Magnetic Variation 3.431° E

METAR

LIPQ 122350Z AUTO 15006KT 9999 BKN022 BKN074 10/08 Q1014

Decode

TAF

TAF LIPQ 122300Z 1300/1324 VRB05KT 9999 SCT030

Decode

Departure Runways

ID Width Length Bearing (true) Bearing (mag) Surface Threshold Offset Overrun Length
09 148 ft / 45 m 9,819 ft / 2,993 m 90.42° 86.99° Asphalt 823 ft / 251 m 0 ft / 0 m
27 148 ft / 45 m 9,819 ft / 2,993 m 270.44° 267.01° Asphalt 10 ft / 3 m 190 ft / 58 m

LIRQ

Details ICAO LIRQ (FLR)
Name Firenze
Region Italy
Timezone Europe/Rome (UTC+1.0)
Stats Elevation 142 ft / 43 m (AMSL)
Location 43.809984° 11.205118°
Runways 1
Magnetic Variation 2.874° E

METAR

LIRQ 122350Z 08004KT 050V120 9999 SCT050 09/08 Q1016

Decode

TAF

TAF LIRQ 122300Z 1300/1324 VRB06KT 9999 SCT040 TEMPO 1300/1306 SHRA

Decode

Destination Runways

ID Width Length Bearing (true) Bearing (mag) Surface Threshold Offset Overrun Length
05 98 ft / 30 m 5,420 ft / 1,652 m 48.52° 45.65° Asphalt 492 ft / 150 m 0 ft / 0 m
23 98 ft / 30 m 5,420 ft / 1,652 m 228.53° 225.66° Asphalt 2,287 ft / 697 m 0 ft / 0 m

Approach Navaids

Runway Type Ident Frequency Range Bearing (true) Bearing (mag) Slope Elevation
05 Localiser IFZ 110.30 MHz 18 nm / 33 km 48.10° 45.23° - 131 ft / 40 m (AMSL)
05 Glidescope IFZ 110.30 MHz 10 nm / 19 km 47.00° 44.13° 3.00° 144 ft / 44 m (AMSL)
05 DME IFZ 110.30 MHz 18 nm / 33 km - - - 144 ft / 44 m (AMSL)

Popular Alternatives